Pleasant Grove, California
Current Conditions -  °F | °C
As of 12:15 PM on Sunday 23 Nov 2014 (Local Time) from KLHM Reporting Station
Clear Clear  
Wind Chill: 55°   Ceiling: Unl
Heat Index: 55°   Visibility: 10mi
Dew Point: 41°   Wind: 3mph
Humidity: 58%   Direction: 350°N
Pressure: 30.28"   Gusts: NA
Location:  38.82°N, 121.48°W
Report Text: KLHM 232015Z AUTO 35003KT 10SM CLR 13/05 A3028 RMK AO1
Loading
Personal Weather Stations






























Interactive Weather Map New forecast layout! Learn more

10-Day Weather Forecast

Advertisements
Track Severe Weather on mobile